Terminal Aerodrome Forecast
Issued by NWS

Home | Current Version | Previous Version | Graphics & Text | Print | Product List | Glossary On
Versions: 1 2 3 4 5 6 7 8 9 10 11 12 13 14 15
000
FTUS43 KBIS 232300
TAFMOT
TAF
KMOT 232333Z 2400/2424 26010KT P6SM SCT150
     FM241600 31012KT P6SM -RASN OVC035
     FM241900 31012KT P6SM -RA OVC015=

USA.gov is the U.S. government's official web portal to all federal, state and local government web resources and services.